Time;durP1;ratioP1;P1;durP2;ratioP2;P2;SDS_P1;SDS_P2;PMS_P1;PMS_P2;Temp;Humidity;BMP_temperature;BMP_pressure;BME280_temperature;BME280_humidity;BME280_pressure;Samples;Min_cycle;Max_cycle;Signal;HPM_P1;HPM_P2
2022/10/18 00:00:21;;;;;;;22.10;11.35;;;;;;;10.89;77.69;101379.00;4489595;31;34300;-77
2022/10/18 00:02:49;;;;;;;17.87;11.18;;;;;;;10.82;77.71;101376.00;4486262;31;33970;-77
2022/10/18 00:05:16;;;;;;;17.65;10.60;;;;;;;10.92;77.10;101372.34;4485616;31;34240;-77
2022/10/18 00:07:44;;;;;;;18.10;10.10;;;;;;;11.31;74.72;101383.63;4480614;31;34818;-77
2022/10/18 00:10:11;;;;;;;14.90;10.40;;;;;;;11.84;72.12;101369.81;4474515;32;33905;-77
2022/10/18 00:12:39;;;;;;;16.20;9.98;;;;;;;11.70;72.60;101373.19;4486251;31;34287;-77
2022/10/18 00:15:07;;;;;;;16.70;10.60;;;;;;;11.24;74.76;101373.63;4478790;31;33879;-77
2022/10/18 00:17:36;;;;;;;17.60;11.10;;;;;;;10.65;78.55;101363.56;4469116;31;33929;-77
2022/10/18 00:20:05;;;;;;;17.62;11.45;;;;;;;10.64;78.55;101364.34;4488773;31;34155;-77
2022/10/18 00:22:34;;;;;;;18.50;12.00;;;;;;;10.52;79.16;101363.50;4489195;31;34712;-77
2022/10/18 00:25:01;;;;;;;20.35;11.80;;;;;;;10.33;79.95;101359.63;4486281;31;34087;-77
2022/10/18 00:27:29;;;;;;;18.87;11.00;;;;;;;10.55;79.72;101363.75;4481310;31;34117;-77
2022/10/18 00:29:57;;;;;;;15.05;10.05;;;;;;;9.88;81.32;101358.09;4479242;31;33313;-77
2022/10/18 00:32:24;;;;;;;16.77;10.65;;;;;;;9.97;81.78;101358.78;4479853;31;33875;-77
2022/10/18 00:34:52;;;;;;;16.40;11.43;;;;;;;9.96;81.98;101356.97;4481039;31;33706;-77
2022/10/18 00:37:19;;;;;;;19.60;11.23;;;;;;;10.03;82.20;101351.44;4480775;31;33608;-77
2022/10/18 00:39:47;;;;;;;18.55;11.75;;;;;;;10.30;80.88;101359.41;4473682;31;33028;-77
2022/10/18 00:42:20;;;;;;;17.75;12.25;;;;;;;10.27;80.81;101359.16;4489423;31;34757;-77
2022/10/18 00:44:47;;;;;;;20.75;13.38;;;;;;;9.92;81.97;101352.34;4473726;31;33973;-77
2022/10/18 00:47:16;;;;;;;21.00;13.20;;;;;;;9.72;82.87;101360.38;4478465;31;33957;-77
2022/10/18 00:49:48;;;;;;;20.12;13.70;;;;;;;9.46;83.98;101356.75;4488323;31;34118;-77
2022/10/18 00:52:27;;;;;;;20.77;14.50;;;;;;;9.21;85.71;101354.94;4478863;31;34157;-77
2022/10/18 00:54:55;;;;;;;19.25;13.18;;;;;;;9.11;86.85;101352.44;4488855;31;33928;-77
2022/10/18 00:57:24;;;;;;;22.62;14.43;;;;;;;9.06;87.50;101353.78;4478142;31;34618;-77
2022/10/18 00:59:52;;;;;;;21.00;13.27;;;;;;;9.08;87.75;101352.22;4477507;32;33256;-77
2022/10/18 01:02:20;;;;;;;18.67;13.90;;;;;;;9.09;87.52;101345.34;4475584;32;33827;-77
2022/10/18 01:04:48;;;;;;;21.10;14.00;;;;;;;9.35;86.10;101349.88;4482755;31;34025;-77
2022/10/18 01:07:24;;;;;;;19.75;13.82;;;;;;;9.76;84.01;101337.41;4482421;31;32197;-78
2022/10/18 01:09:58;;;;;;;22.48;15.18;;;;;;;9.89;82.67;101336.62;4477820;31;33423;-77
2022/10/18 01:13:03;;;;;;;20.23;14.63;;;;;;;10.35;80.50;101332.16;4489131;31;34395;-77
2022/10/18 01:15:49;;;;;;;17.45;12.98;;;;;;;10.40;79.24;101330.78;4477842;32;33604;-77
2022/10/18 01:18:33;;;;;;;22.25;14.55;;;;;;;10.58;77.94;101325.06;4473714;32;33898;-77
2022/10/18 01:21:25;;;;;;;21.00;13.88;;;;;;;10.31;79.14;101324.94;4470479;31;33369;-77
2022/10/18 01:24:17;;;;;;;23.48;14.73;;;;;;;10.35;78.94;101315.69;4476580;31;33946;-77
2022/10/18 01:26:50;;;;;;;20.75;12.57;;;;;;;10.24;79.07;101322.69;4476906;31;33878;-77
2022/10/18 01:29:36;;;;;;;16.58;10.98;;;;;;;10.34;78.71;101317.41;4470625;32;33549;-77
2022/10/18 01:32:11;;;;;;;18.40;11.82;;;;;;;10.16;78.77;101313.47;4476919;31;33680;-77
2022/10/18 01:34:41;;;;;;;17.55;11.32;;;;;;;10.13;78.65;101314.16;4480453;31;34428;-77
2022/10/18 01:37:12;;;;;;;16.60;11.23;;;;;;;10.13;78.44;101308.09;4479086;32;33773;-77
2022/10/18 01:39:43;;;;;;;18.00;10.50;;;;;;;10.29;77.87;101310.94;4478401;32;33856;-77
2022/10/18 01:42:13;;;;;;;17.08;10.82;;;;;;;10.88;75.52;101309.84;4472258;32;33784;-77
2022/10/18 01:44:43;;;;;;;17.08;9.70;;;;;;;10.66;75.83;101310.03;4479636;31;33835;-77
2022/10/18 01:47:11;;;;;;;13.90;9.07;;;;;;;11.08;73.91;101298.19;4473603;31;33440;-77
2022/10/18 01:49:38;;;;;;;15.30;9.20;;;;;;;11.02;74.04;101298.69;4482166;31;34084;-77
2022/10/18 01:52:07;;;;;;;16.48;9.70;;;;;;;10.61;74.98;101299.38;4496451;31;33693;-77
2022/10/18 01:54:43;;;;;;;18.02;9.48;;;;;;;10.32;76.67;101300.84;4484027;31;33591;-76
2022/10/18 01:57:18;;;;;;;18.45;10.55;;;;;;;10.12;77.29;101289.06;4484794;31;33959;-77
2022/10/18 01:59:56;;;;;;;17.15;9.95;;;;;;;9.44;81.76;101292.00;4484778;31;34373;-77
2022/10/18 02:02:56;;;;;;;16.85;10.65;;;;;;;10.27;78.02;101281.44;4481152;31;33528;-77
2022/10/18 02:05:47;;;;;;;16.15;10.73;;;;;;;10.07;77.58;101281.78;4490486;31;34031;-77
2022/10/18 02:08:38;;;;;;;18.65;11.45;;;;;;;10.30;77.13;101275.62;4482182;32;33663;-77
2022/10/18 02:11:06;;;;;;;16.15;10.85;;;;;;;9.60;80.03;101272.38;4483861;32;34448;-77
2022/10/18 02:13:39;;;;;;;16.42;11.43;;;;;;;9.98;78.80;101276.81;4481879;32;33242;-77
2022/10/18 02:16:11;;;;;;;18.95;11.05;;;;;;;9.92;78.61;101271.22;4485687;31;34134;-77
2022/10/18 02:18:47;;;;;;;15.65;10.82;;;;;;;10.53;76.17;101274.63;4488457;31;34220;-77
2022/10/18 02:21:17;;;;;;;16.40;10.00;;;;;;;10.29;75.69;101279.88;4474053;32;33949;-77
2022/10/18 02:23:45;;;;;;;18.83;11.38;;;;;;;10.13;76.23;101277.00;4482558;32;34113;-77
2022/10/18 02:26:13;;;;;;;17.62;10.88;;;;;;;9.67;77.30;101285.00;4480189;32;33813;-77
2022/10/18 02:28:41;;;;;;;18.95;12.25;;;;;;;10.10;75.32;101276.78;4473534;31;33575;-77
2022/10/18 02:31:21;;;;;;;18.10;12.63;;;;;;;9.38;80.43;101286.34;4491234;31;34072;-77
2022/10/18 02:33:56;;;;;;;22.55;12.85;;;;;;;9.45;81.27;101282.53;4479872;31;33499;-77
2022/10/18 02:36:30;;;;;;;20.10;13.00;;;;;;;9.92;79.59;101279.88;4484044;32;33606;-77
2022/10/18 02:39:03;;;;;;;15.45;10.57;;;;;;;10.19;77.85;101288.69;4472312;31;32368;-77
2022/10/18 02:41:30;;;;;;;17.55;10.63;;;;;;;10.20;77.10;101276.66;4482375;32;34468;-77
2022/10/18 02:43:58;;;;;;;17.08;10.20;;;;;;;10.40;75.90;101278.97;4484883;32;34249;-77
2022/10/18 02:46:25;;;;;;;16.83;11.40;;;;;;;10.21;76.58;101287.09;4496894;31;34549;-77
2022/10/18 02:48:58;;;;;;;16.45;10.38;;;;;;;10.40;76.39;101289.31;4477363;31;34194;-77
2022/10/18 02:51:25;;;;;;;16.62;10.50;;;;;;;10.39;76.01;101281.44;4478509;31;33302;-77
2022/10/18 02:53:53;;;;;;;16.02;10.32;;;;;;;10.11;77.03;101273.41;4487765;31;33131;-77
2022/10/18 02:56:20;;;;;;;17.10;10.65;;;;;;;10.47;75.45;101276.78;4501005;31;34173;-77
2022/10/18 02:58:48;;;;;;;19.35;11.48;;;;;;;10.13;75.93;101282.19;4474759;31;33795;-77
2022/10/18 03:01:15;;;;;;;15.02;10.43;;;;;;;10.49;74.21;101283.88;4483075;31;33817;-77
2022/10/18 03:03:42;;;;;;;17.40;11.10;;;;;;;10.02;75.53;101279.75;4493122;31;33373;-77
2022/10/18 03:06:10;;;;;;;15.82;10.70;;;;;;;10.50;73.65;101269.22;4488853;31;34493;-77
2022/10/18 03:08:37;;;;;;;17.35;10.90;;;;;;;10.29;74.22;101279.88;4480595;31;33783;-77
2022/10/18 03:11:05;;;;;;;18.05;10.07;;;;;;;10.22;74.57;101277.66;4479033;31;34430;-77
2022/10/18 03:13:33;;;;;;;18.20;10.90;;;;;;;9.97;75.28;101281.13;4493532;31;33466;-77
2022/10/18 03:16:00;;;;;;;19.15;10.73;;;;;;;9.89;75.84;101287.44;4478578;31;33629;-77
2022/10/18 03:18:28;;;;;;;16.05;10.18;;;;;;;10.04;75.20;101288.53;4485672;32;34176;-77
2022/10/18 03:20:55;;;;;;;19.83;11.02;;;;;;;9.75;76.53;101288.13;4488025;31;33874;-77
2022/10/18 03:23:23;;;;;;;17.27;11.50;;;;;;;9.58;77.40;101290.41;4488520;31;33719;-77
2022/10/18 03:25:50;;;;;;;20.33;13.30;;;;;;;9.42;78.75;101296.12;4488225;31;33421;-77
2022/10/18 03:28:18;;;;;;;20.42;12.52;;;;;;;9.32;80.07;101300.53;4490886;31;34019;-77
2022/10/18 03:30:45;;;;;;;18.17;11.50;;;;;;;8.78;83.31;101300.00;4492869;31;33971;-77
2022/10/18 03:33:12;;;;;;;21.27;11.85;;;;;;;8.38;84.09;101294.34;4494744;31;33496;-77
2022/10/18 03:35:40;;;;;;;18.37;12.82;;;;;;;8.07;86.04;101303.94;4492635;31;34391;-77
2022/10/18 03:38:07;;;;;;;17.77;12.60;;;;;;;8.01;86.73;101306.94;4488236;31;34608;-77
2022/10/18 03:40:35;;;;;;;20.73;14.23;;;;;;;8.12;85.88;101299.16;4493544;31;33957;-77
2022/10/18 03:43:02;;;;;;;18.87;13.07;;;;;;;8.43;85.82;101305.94;4499158;31;33555;-77
2022/10/18 03:45:30;;;;;;;21.23;14.10;;;;;;;9.21;81.17;101300.66;4478035;32;32379;-77
2022/10/18 03:47:58;;;;;;;20.90;13.85;;;;;;;9.10;80.57;101298.94;4493480;31;34562;-77
2022/10/18 03:50:25;;;;;;;22.13;13.62;;;;;;;9.25;80.02;101304.34;4491801;31;34659;-77
2022/10/18 03:52:54;;;;;;;21.67;12.25;;;;;;;9.53;78.96;101302.09;4477453;31;33584;-77
2022/10/18 03:55:21;;;;;;;19.92;12.77;;;;;;;9.18;79.14;101302.09;4480408;31;34285;-77
2022/10/18 03:57:49;;;;;;;21.27;12.43;;;;;;;9.28;78.40;101308.84;4478146;32;34759;-77
2022/10/18 04:00:16;;;;;;;17.98;11.82;;;;;;;9.04;79.53;101311.41;4474665;31;33884;-77
2022/10/18 04:02:44;;;;;;;19.02;11.48;;;;;;;8.93;80.59;101317.47;4481857;31;33301;-77
2022/10/18 04:05:12;;;;;;;20.23;12.57;;;;;;;8.61;82.49;101315.88;4493394;31;33630;-77
2022/10/18 04:07:40;;;;;;;19.90;13.05;;;;;;;8.30;84.97;101313.47;4483418;31;34190;-77
2022/10/18 04:10:08;;;;;;;19.67;12.13;;;;;;;8.75;83.70;101307.53;4474987;31;34106;-77
2022/10/18 04:12:35;;;;;;;22.42;12.40;;;;;;;8.76;84.22;101308.44;4477826;31;31924;-77
2022/10/18 04:15:03;;;;;;;19.37;13.73;;;;;;;8.50;84.76;101306.41;4473720;31;34593;-77
2022/10/18 04:17:30;;;;;;;20.75;13.88;;;;;;;8.67;84.18;101300.84;4484121;31;33927;-77
2022/10/18 04:19:58;;;;;;;20.48;14.07;;;;;;;8.57;84.23;101303.53;4494374;31;33861;-77
2022/10/18 04:22:26;;;;;;;22.35;14.55;;;;;;;8.91;83.01;101300.94;4486818;31;32266;-77
2022/10/18 04:24:55;;;;;;;19.33;13.00;;;;;;;8.39;85.64;101301.28;4494737;31;34979;-77
2022/10/18 04:27:23;;;;;;;26.70;15.27;;;;;;;8.15;85.28;101301.97;4490353;31;34693;-77
2022/10/18 04:29:50;;;;;;;22.95;15.75;;;;;;;8.00;87.01;101306.84;4478640;31;33568;-76
2022/10/18 04:32:18;;;;;;;25.77;16.55;;;;;;;7.84;87.30;101299.53;4487892;31;34303;-77
2022/10/18 04:34:45;;;;;;;22.80;16.30;;;;;;;8.14;86.25;101300.19;4478641;31;33624;-77
2022/10/18 04:37:13;;;;;;;24.27;16.80;;;;;;;7.64;87.96;101293.69;4478270;31;34120;-77
2022/10/18 04:39:45;;;;;;;33.00;18.45;;;;;;;8.40;85.13;101290.19;4456909;32;32140;-77
2022/10/18 04:42:19;;;;;;;28.38;18.20;;;;;;;8.29;86.40;101293.63;4469420;31;33022;-77
2022/10/18 04:44:46;;;;;;;25.75;17.17;;;;;;;8.22;86.50;101291.34;4469112;31;34628;-76
2022/10/18 04:47:14;;;;;;;24.75;16.70;;;;;;;8.07;85.84;101284.22;4470400;31;35270;-77
2022/10/18 04:49:42;;;;;;;25.05;16.70;;;;;;;8.30;84.54;101273.87;4471785;31;34621;-77
2022/10/18 04:52:10;;;;;;;22.42;16.02;;;;;;;8.54;83.77;101280.97;4470062;31;33849;-77
2022/10/18 04:54:37;;;;;;;22.95;16.73;;;;;;;9.32;80.05;101270.41;4470561;31;33702;-77
2022/10/18 04:57:05;;;;;;;27.48;16.83;;;;;;;9.21;80.54;101272.22;4476283;31;34513;-77
2022/10/18 04:59:32;;;;;;;26.77;15.52;;;;;;;9.23;80.67;101268.06;4470358;31;34071;-77
2022/10/18 05:02:00;;;;;;;20.25;15.48;;;;;;;9.45;79.44;101269.62;4471105;31;34354;-77
2022/10/18 05:04:27;;;;;;;24.63;16.50;;;;;;;9.27;79.39;101266.56;4471459;31;33825;-77
2022/10/18 05:06:55;;;;;;;22.95;13.98;;;;;;;9.87;76.76;101260.56;4474786;31;33834;-77
2022/10/18 05:09:23;;;;;;;20.25;14.02;;;;;;;9.82;76.63;101260.22;4476351;31;32721;-77
2022/10/18 05:11:51;;;;;;;20.88;13.82;;;;;;;9.62;77.55;101263.97;4475544;31;34395;-77
2022/10/18 05:14:18;;;;;;;21.55;12.40;;;;;;;10.36;73.43;101266.59;4475274;31;34427;-77
2022/10/18 05:16:46;;;;;;;20.50;12.02;;;;;;;10.49;72.31;101264.84;4470581;31;34105;-77
2022/10/18 05:19:13;;;;;;;19.58;11.50;;;;;;;10.42;72.30;101263.53;4472676;31;34416;-77
2022/10/18 05:21:41;;;;;;;22.42;12.20;;;;;;;9.88;74.07;101267.50;4473088;31;33965;-77
2022/10/18 05:24:10;;;;;;;20.98;11.88;;;;;;;10.13;73.28;101277.00;4471873;31;33626;-77
2022/10/18 05:26:38;;;;;;;20.33;11.85;;;;;;;9.44;75.94;101266.12;4476577;31;34028;-78
2022/10/18 05:29:05;;;;;;;21.98;11.82;;;;;;;9.18;77.54;101266.81;4473229;31;33843;-79
2022/10/18 05:31:33;;;;;;;21.60;13.15;;;;;;;9.17;77.63;101264.09;4474182;31;33527;-78
2022/10/18 05:34:00;;;;;;;21.40;13.70;;;;;;;8.76;79.72;101273.16;4470777;31;33528;-78
2022/10/18 05:36:28;;;;;;;21.80;13.10;;;;;;;9.24;78.12;101262.06;4474864;31;33658;-79
2022/10/18 05:38:55;;;;;;;26.35;14.30;;;;;;;8.90;79.47;101269.00;4472629;31;34441;-78
2022/10/18 05:41:30;;;;;;;23.87;14.27;;;;;;;8.73;80.59;101275.50;4478312;31;34077;-77
2022/10/18 05:44:02;;;;;;;24.85;15.90;;;;;;;8.27;82.21;101271.97;4468900;31;34472;-78
2022/10/18 05:46:30;;;;;;;24.30;16.25;;;;;;;8.33;83.59;101275.00;4469339;31;34359;-79
2022/10/18 05:48:58;;;;;;;29.15;18.23;;;;;;;8.03;84.83;101276.09;4473861;31;32425;-77
2022/10/18 05:51:25;;;;;;;28.62;17.83;;;;;;;9.09;80.88;101271.28;4468475;31;32924;-77
2022/10/18 05:53:53;;;;;;;29.23;18.67;;;;;;;9.60;77.98;101262.97;4472827;31;33936;-77
2022/10/18 05:56:20;;;;;;;22.48;15.80;;;;;;;9.64;77.68;101272.75;4475842;31;33756;-78
2022/10/18 05:58:49;;;;;;;26.30;16.02;;;;;;;9.77;77.14;101271.94;4484462;31;33849;-78
2022/10/18 06:01:17;;;;;;;23.12;15.82;;;;;;;10.26;75.54;101269.31;4496159;31;33462;-79
2022/10/18 06:03:45;;;;;;;29.33;15.68;;;;;;;10.40;74.95;101272.88;4486299;31;33688;-78
2022/10/18 06:06:13;;;;;;;25.73;15.80;;;;;;;10.06;76.63;101265.31;4489355;31;34509;-78
2022/10/18 06:08:41;;;;;;;27.83;14.55;;;;;;;9.97;76.72;101265.59;4491941;31;33989;-78
2022/10/18 06:11:15;;;;;;;27.60;14.50;;;;;;;10.14;76.12;101269.38;4477989;31;33958;-78
2022/10/18 06:13:47;;;;;;;23.73;14.68;;;;;;;10.13;76.48;101272.72;4484868;31;33608;-79
2022/10/18 06:16:17;;;;;;;24.63;14.57;;;;;;;10.46;75.45;101270.72;4487750;31;33583;-78
2022/10/18 06:18:50;;;;;;;26.08;15.45;;;;;;;10.64;74.85;101276.25;4492493;31;32392;-78
2022/10/18 06:21:18;;;;;;;26.30;15.07;;;;;;;10.53;75.64;101279.81;4479089;31;33664;-78
2022/10/18 06:23:55;;;;;;;26.48;15.27;;;;;;;10.25;77.02;101277.87;4478958;31;33703;-77
2022/10/18 06:26:22;;;;;;;26.30;14.87;;;;;;;10.35;77.31;101285.53;4472502;31;33957;-78
2022/10/18 06:28:50;;;;;;;24.73;14.98;;;;;;;10.80;75.23;101280.78;4476028;31;34629;-78
2022/10/18 06:31:18;;;;;;;25.58;14.85;;;;;;;10.94;74.72;101279.12;4470959;31;34324;-78
2022/10/18 06:33:45;;;;;;;29.05;15.70;;;;;;;11.00;74.69;101280.41;4481771;31;34578;-78
2022/10/18 06:36:18;;;;;;;27.45;15.70;;;;;;;11.14;74.48;101283.91;4473110;31;33830;-78
2022/10/18 06:38:45;;;;;;;27.62;15.75;;;;;;;11.26;74.17;101273.50;4482342;31;33990;-80
2022/10/18 06:41:13;;;;;;;25.90;14.25;;;;;;;11.31;74.35;101271.19;4484457;31;33265;-77
2022/10/18 06:43:41;;;;;;;22.20;14.75;;;;;;;11.56;73.73;101278.84;4484341;31;34746;-78
2022/10/18 06:46:08;;;;;;;25.12;15.65;;;;;;;11.50;74.20;101278.47;4477535;31;34512;-78
2022/10/18 06:48:37;;;;;;;27.40;15.18;;;;;;;11.65;73.97;101278.53;4470704;32;33931;-78
2022/10/18 06:51:06;;;;;;;27.52;15.70;;;;;;;11.63;74.41;101285.31;4482944;31;33801;-78
2022/10/18 06:53:35;;;;;;;23.12;15.35;;;;;;;11.81;74.00;101291.72;4481397;31;34603;-76
2022/10/18 06:56:14;;;;;;;22.98;14.35;;;;;;;12.03;74.05;101282.69;4486311;31;33711;-78
2022/10/18 06:58:42;;;;;;;24.05;14.50;;;;;;;12.32;73.38;101295.81;4486210;31;33845;-77
2022/10/18 07:01:14;;;;;;;32.00;16.27;;;;;;;12.10;74.54;101290.09;4498663;31;32369;-77
2022/10/18 07:03:43;;;;;;;25.75;16.65;;;;;;;12.15;74.87;101293.88;4482199;31;34612;-77
2022/10/18 07:06:12;;;;;;;23.20;16.20;;;;;;;12.28;74.92;101301.59;4501489;31;33270;-77
2022/10/18 07:08:40;;;;;;;28.33;17.00;;;;;;;12.35;75.18;101301.19;4489793;31;33464;-78
2022/10/18 07:11:13;;;;;;;34.95;17.55;;;;;;;12.20;76.08;101292.44;4474559;31;33536;-78
2022/10/18 07:13:40;;;;;;;29.65;16.73;;;;;;;12.55;75.11;101291.09;4499331;31;33253;-78
2022/10/18 07:16:13;;;;;;;29.15;17.73;;;;;;;12.20;76.71;101287.25;4497237;31;32365;-78
2022/10/18 07:18:49;;;;;;;29.15;18.77;;;;;;;12.33;77.26;101294.09;4484514;31;33732;-78
2022/10/18 07:21:20;;;;;;;26.83;17.35;;;;;;;12.50;76.93;101287.34;4479468;31;33264;-78
2022/10/18 07:23:48;;;;;;;27.60;18.52;;;;;;;12.70;76.27;101280.75;4487133;31;34372;-78
2022/10/18 07:26:28;;;;;;;28.48;18.33;;;;;;;13.02;75.66;101269.66;4486055;31;34408;-78
2022/10/18 07:29:04;;;;;;;33.85;19.17;;;;;;;13.15;75.90;101272.16;4474023;31;33900;-78
2022/10/18 07:31:32;;;;;;;29.30;18.45;;;;;;;13.27;75.56;101266.75;4481627;31;33209;-78
2022/10/18 07:33:59;;;;;;;28.23;17.80;;;;;;;13.31;75.20;101262.66;4481943;31;34154;-77
2022/10/18 07:36:27;;;;;;;30.67;18.20;;;;;;;13.53;73.71;101264.75;4478905;31;34164;-78
2022/10/18 07:38:55;;;;;;;26.10;15.80;;;;;;;13.71;73.36;101260.59;4486782;31;34550;-78
2022/10/18 07:41:22;;;;;;;25.73;17.83;;;;;;;13.86;72.09;101263.13;4483447;31;33625;-78
2022/10/18 07:43:51;;;;;;;26.92;17.10;;;;;;;14.06;71.46;101258.09;4478452;31;33780;-79
2022/10/18 07:46:20;;;;;;;26.52;16.85;;;;;;;14.06;71.00;101265.91;4480754;31;34112;-79
2022/10/18 07:48:48;;;;;;;25.85;16.87;;;;;;;14.24;70.28;101269.53;4478434;31;33745;-79
2022/10/18 07:51:17;;;;;;;27.23;16.77;;;;;;;14.19;70.34;101268.38;4481452;31;33321;-79
2022/10/18 07:53:44;;;;;;;23.50;16.35;;;;;;;14.15;69.02;101269.03;4488163;31;33711;-79
2022/10/18 07:56:19;;;;;;;24.65;15.73;;;;;;;14.09;69.24;101269.59;4489725;31;34611;-78
2022/10/18 07:58:52;;;;;;;23.38;16.05;;;;;;;14.28;67.75;101266.25;4484147;31;34489;-79
2022/10/18 08:01:21;;;;;;;27.48;16.50;;;;;;;14.59;66.81;101267.91;4497721;31;34349;-79
2022/10/18 08:03:49;;;;;;;23.77;16.37;;;;;;;14.77;66.93;101256.63;4493503;31;33983;-79
2022/10/18 08:06:18;;;;;;;28.75;15.80;;;;;;;14.68;67.02;101252.75;4499460;31;34616;-79
2022/10/18 08:08:46;;;;;;;24.20;16.48;;;;;;;14.99;65.70;101249.09;4486046;31;33408;-79
2022/10/18 08:11:17;;;;;;;24.33;15.65;;;;;;;15.14;65.06;101242.00;4498137;31;33267;-79
2022/10/18 08:13:45;;;;;;;23.75;15.35;;;;;;;15.25;64.71;101246.84;4489705;31;33106;-78
2022/10/18 08:16:19;;;;;;;34.88;15.70;;;;;;;15.36;63.29;101232.63;4481599;31;31951;-79
2022/10/18 08:18:47;;;;;;;22.05;15.13;;;;;;;15.33;63.48;101229.84;4475331;31;33633;-79
2022/10/18 08:21:15;;;;;;;24.58;15.68;;;;;;;15.51;63.18;101230.75;4497977;31;33244;-79
2022/10/18 08:23:43;;;;;;;22.70;13.75;;;;;;;15.56;62.11;101232.66;4492341;31;34055;-78
2022/10/18 08:26:13;;;;;;;24.60;13.43;;;;;;;15.87;59.05;101235.03;4496881;31;34634;-78
2022/10/18 08:28:41;;;;;;;22.23;12.50;;;;;;;16.02;58.33;101225.28;4484758;31;33900;-78
2022/10/18 08:31:20;;;;;;;21.00;12.75;;;;;;;16.36;57.82;101220.66;4490601;31;33640;-80
2022/10/18 08:33:48;;;;;;;18.77;13.62;;;;;;;16.71;56.12;101230.94;4496976;31;34011;-79
2022/10/18 08:36:18;;;;;;;18.85;12.90;;;;;;;16.82;56.48;101226.16;4491503;31;33949;-79
2022/10/18 08:38:45;;;;;;;19.67;11.93;;;;;;;16.41;57.22;101219.16;4470672;31;32964;-79
2022/10/18 08:41:25;;;;;;;15.05;9.85;;;;;;;16.95;54.79;101213.63;4491700;31;33577;-79
2022/10/18 08:44:03;;;;;;;16.52;10.05;;;;;;;16.97;52.79;101215.47;4486644;31;34038;-79
2022/10/18 08:46:35;;;;;;;16.40;10.90;;;;;;;17.34;53.18;101206.47;4475655;31;34446;-80
2022/10/18 08:49:03;;;;;;;13.50;10.23;;;;;;;17.26;54.14;101205.28;4485960;31;33769;-79
2022/10/18 08:51:36;;;;;;;14.40;8.68;;;;;;;17.49;52.40;101199.22;4480701;31;33462;-79
2022/10/18 08:54:15;;;;;;;14.20;9.57;;;;;;;17.49;51.17;101193.97;4481973;31;34574;-80
2022/10/18 08:56:46;;;;;;;14.38;9.57;;;;;;;17.67;51.58;101198.16;4494367;31;34007;-79
2022/10/18 08:59:14;;;;;;;13.73;8.70;;;;;;;17.61;51.90;101188.31;4480025;32;34406;-79
2022/10/18 09:02:10;;;;;;;15.38;9.63;;;;;;;17.98;50.83;101178.34;4476104;31;33411;-79
2022/10/18 09:04:55;;;;;;;13.30;8.80;;;;;;;17.97;51.05;101179.22;4478192;32;34515;-80
2022/10/18 09:07:58;;;;;;;13.90;9.02;;;;;;;18.12;49.45;101181.47;4483229;31;33396;-78
2022/10/18 09:10:57;;;;;;;16.45;9.00;;;;;;;18.28;49.84;101174.22;4488564;31;33636;-78
2022/10/18 09:13:54;;;;;;;14.98;8.75;;;;;;;18.42;47.65;101171.19;4470623;32;33988;-79
2022/10/18 09:16:59;;;;;;;12.20;7.53;;;;;;;18.35;47.42;101170.09;4484212;31;34848;-79
2022/10/18 09:19:41;;;;;;;12.63;7.35;;;;;;;18.46;46.91;101167.84;4483098;31;34478;-80
2022/10/18 09:22:14;;;;;;;14.07;7.20;;;;;;;18.80;46.68;101161.16;4477793;32;33648;-81
2022/10/18 09:25:15;;;;;;;14.00;7.68;;;;;;;19.28;47.14;101168.81;4480653;31;34189;-78
2022/10/18 09:28:17;;;;;;;11.60;6.93;;;;;;;19.58;46.50;101157.44;4487995;31;33700;-79
2022/10/18 09:31:06;;;;;;;11.52;7.18;;;;;;;19.74;43.17;101154.47;4477733;31;33472;-80
2022/10/18 09:33:53;;;;;;;8.00;5.80;;;;;;;19.98;42.71;101149.00;4479526;31;33891;-78
2022/10/18 09:36:29;;;;;;;10.40;6.45;;;;;;;19.82;40.59;101137.16;4488167;31;33243;-80
2022/10/18 09:39:00;;;;;;;9.60;5.80;;;;;;;20.32;40.96;101135.84;4481137;31;34649;-80
2022/10/18 09:41:51;;;;;;;9.43;6.10;;;;;;;19.94;39.99;101131.34;4477694;31;33754;-78
2022/10/18 09:44:38;;;;;;;9.23;5.70;;;;;;;20.54;40.11;101130.31;4472568;32;34705;-79
2022/10/18 09:47:13;;;;;;;12.02;6.20;;;;;;;20.38;38.45;101133.41;4482449;31;33291;-78
2022/10/18 09:49:59;;;;;;;9.32;6.18;;;;;;;20.22;39.82;101133.00;4476574;32;33877;-79
2022/10/18 09:52:32;;;;;;;12.93;6.30;;;;;;;20.72;39.68;101129.03;4477763;31;33622;-79
2022/10/18 09:55:17;;;;;;;11.02;6.57;;;;;;;20.72;38.31;101119.38;4484911;31;33785;-79
2022/10/18 09:57:49;;;;;;;10.80;6.80;;;;;;;21.23;38.02;101117.94;4481417;32;34163;-81
2022/10/18 10:00:25;;;;;;;11.00;6.22;;;;;;;20.85;38.14;101115.31;4474260;32;33684;-79
2022/10/18 10:02:53;;;;;;;9.80;6.60;;;;;;;21.10;38.84;101121.16;4481448;31;34786;-79
2022/10/18 10:05:20;;;;;;;13.13;6.78;;;;;;;21.56;37.99;101114.28;4490437;31;34435;-79
2022/10/18 10:07:48;;;;;;;10.95;7.40;;;;;;;21.48;38.72;101110.56;4477290;31;33822;-80
2022/10/18 10:10:20;;;;;;;10.98;6.60;;;;;;;21.51;38.69;101108.00;4487001;31;34587;-78
2022/10/18 10:13:03;;;;;;;9.85;6.35;;;;;;;21.35;38.24;101106.78;4473841;31;33814;-79
2022/10/18 10:15:31;;;;;;;12.00;6.78;;;;;;;21.34;38.79;101092.72;4482612;31;34239;-80
2022/10/18 10:18:20;;;;;;;13.00;7.25;;;;;;;21.85;37.33;101087.59;4488493;31;34399;-79
2022/10/18 10:20:51;;;;;;;12.35;6.85;;;;;;;21.92;36.54;101087.75;4485680;31;33654;-80
2022/10/18 10:23:43;;;;;;;9.25;6.32;;;;;;;21.69;37.45;101084.66;4491204;31;33630;-79
2022/10/18 10:26:24;;;;;;;13.00;6.95;;;;;;;21.89;37.03;101084.16;4490747;31;33900;-80
2022/10/18 10:28:51;;;;;;;8.98;5.80;;;;;;;22.30;37.64;101086.69;4487992;31;32986;-80
2022/10/18 10:31:26;;;;;;;9.20;6.22;;;;;;;22.62;36.30;101084.59;4477434;31;33690;-80
2022/10/18 10:34:05;;;;;;;14.18;6.95;;;;;;;22.49;36.38;101082.62;4484746;31;33930;-80
2022/10/18 10:36:33;;;;;;;8.98;6.15;;;;;;;22.33;35.81;101065.66;4485091;31;33878;-78
2022/10/18 10:39:21;;;;;;;12.07;6.78;;;;;;;23.24;36.25;101065.25;4489456;31;33692;-79
2022/10/18 10:41:52;;;;;;;12.13;6.25;;;;;;;22.70;35.37;101067.09;4483471;31;33747;-80
2022/10/18 10:44:22;;;;;;;11.73;5.85;;;;;;;23.18;35.53;101057.25;4469146;32;32426;-80
2022/10/18 10:46:50;;;;;;;8.82;5.50;;;;;;;23.31;35.32;101050.34;4483170;31;33735;-79
2022/10/18 10:49:20;;;;;;;7.90;5.37;;;;;;;23.41;34.30;101048.72;4477753;31;34064;-79
2022/10/18 10:52:17;;;;;;;11.60;5.68;;;;;;;23.46;34.20;101039.09;4475846;32;33989;-80
2022/10/18 10:54:56;;;;;;;10.20;5.55;;;;;;;23.23;33.92;101037.03;4475358;31;34587;-80
2022/10/18 10:57:37;;;;;;;10.32;5.37;;;;;;;22.63;33.97;101037.94;4482758;31;33878;-80
2022/10/18 11:00:05;;;;;;;11.27;5.00;;;;;;;23.39;34.07;101026.66;4477569;31;32819;-80
2022/10/18 11:02:34;;;;;;;12.27;6.07;;;;;;;23.99;33.65;101030.88;4475680;31;34645;-79
2022/10/18 11:05:22;;;;;;;10.70;5.57;;;;;;;23.74;33.27;101030.59;4483580;31;33854;-79
2022/10/18 11:07:52;;;;;;;9.68;5.80;;;;;;;24.14;33.45;101023.06;4493506;31;34165;-79
2022/10/18 11:10:23;;;;;;;9.55;5.12;;;;;;;24.08;33.44;101024.75;4474307;32;31681;-81
2022/10/18 11:13:01;;;;;;;7.65;4.70;;;;;;;23.98;32.95;101023.78;4471689;31;34632;-79
2022/10/18 11:15:44;;;;;;;7.95;5.20;;;;;;;24.02;32.88;101022.06;4478499;31;33927;-79
2022/10/18 11:18:29;;;;;;;10.18;4.80;;;;;;;23.50;31.83;101009.16;4477998;31;33078;-79
2022/10/18 11:21:07;;;;;;;6.60;4.80;;;;;;;23.19;34.63;101002.63;4484907;31;33899;-81
2022/10/18 11:23:36;;;;;;;7.05;4.57;;;;;;;23.22;33.82;101003.56;4482964;31;33972;-80
2022/10/18 11:26:10;;;;;;;8.35;4.50;;;;;;;23.71;32.79;101004.09;4490004;31;33118;-80
2022/10/18 11:28:46;;;;;;;11.05;5.20;;;;;;;24.38;32.26;101002.94;4491574;31;34206;-79
2022/10/18 11:31:49;;;;;;;6.62;3.70;;;;;;;24.70;31.96;100999.66;4472872;32;34340;-80
2022/10/18 11:34:20;;;;;;;7.55;4.03;;;;;;;23.95;30.36;100992.00;4458738;31;34527;-79
2022/10/18 11:37:29;;;;;;;7.28;3.85;;;;;;;22.93;32.22;100993.47;4491213;31;33443;-80